»·PEaware :: UAL538 KSFO-KPHX

UAL538 :: KSFO-KPHX

FLIGHT INFORMATION

Flight Status: Arrived
Operator:
United Airlines
More flights by this operator :: More flights under this callsign
Pilot: Anonymous 15639 (15639)
Aircraft: BOEING 737-800
(B738)
More flights by this aircraft type
Origin: KSFO San Francisco Intl
United States
Destination: KPHX Phoenix Sky Harbor Intl
United States
More flights between these airports :: More routes between these airports
Route: SSTIK3 LOSHN BOILE BLH HYDRR1
File this flight plan on PilotEdge
Remarks:
Altitude:
(Current/Filed)
39,000ft
Speed:
(Current/Filed)
451kts
Departed: 07-Sep-18 12:32 PM
Arrived: 07-Sep-18 02:10 PM
Distance/Time
Traveled:
565nm/1:38
Distance/Time
To Go:
Arrived

Flight Plot

Page will automatically refresh every two minutes.


Map Options




Map Legend


Flown Route
Filed Route
Departure Airport
Arrival Airport
Navaid (VOR, NDB)
Fix

Horizontal Profiles

Position Reports

Time Latitude Longitude Heading Altitude Ground
Speed
07-Sep-18 12:05 37.612638 -122.384669 6 21ft 0kts
07-Sep-18 12:06 37.612638 -122.384669 6 21ft 0kts
07-Sep-18 12:07 37.612638 -122.384669 6 21ft 0kts
07-Sep-18 12:08 37.612638 -122.384669 6 21ft 0kts
07-Sep-18 12:09 37.612638 -122.384669 6 21ft 0kts
07-Sep-18 12:10 37.612638 -122.384669 6 21ft 0kts
07-Sep-18 12:11 37.612638 -122.384669 6 21ft 0kts
07-Sep-18 12:12 37.612638 -122.384669 6 21ft 0kts
07-Sep-18 12:13 37.612638 -122.384669 6 21ft 0kts
07-Sep-18 12:14 37.612638 -122.384669 6 21ft 0kts
07-Sep-18 12:15 37.612638 -122.384669 6 21ft 0kts
07-Sep-18 12:16 37.612638 -122.384669 6 21ft 0kts
07-Sep-18 12:17 37.612638 -122.384669 6 21ft 0kts
07-Sep-18 12:18 37.612638 -122.384669 6 21ft 0kts
07-Sep-18 12:19 37.612638 -122.384669 6 21ft 0kts
07-Sep-18 12:20 37.612638 -122.384669 6 21ft 0kts
07-Sep-18 12:21 37.612638 -122.384669 6 21ft 0kts
07-Sep-18 12:22 37.612638 -122.384669 6 21ft 0kts
07-Sep-18 12:23 37.612638 -122.384669 6 21ft 0kts
07-Sep-18 12:24 37.612071 -122.384732 5 21ft 2kts
07-Sep-18 12:25 37.611472 -122.384800 5 21ft 2kts
07-Sep-18 12:26 37.611292 -122.384950 74 21ft 0kts
07-Sep-18 12:27 37.611292 -122.384949 74 21ft 0kts
07-Sep-18 12:28 37.611292 -122.384949 74 21ft 0kts
07-Sep-18 12:29 37.611414 -122.384173 96 21ft 3kts
07-Sep-18 12:30 37.611276 -122.383613 123 21ft 3kts
07-Sep-18 12:31 37.609728 -122.384388 209 21ft 7kts
07-Sep-18 12:32 37.608588 -122.384161 118 21ft 3kts
07-Sep-18 12:33 37.608557 -122.382484 30 21ft 7kts
07-Sep-18 12:34 37.633054 -122.365873 29 818ft 155kts
07-Sep-18 12:35 37.682673 -122.356077 325 3016ft 237kts
07-Sep-18 12:36 37.678044 -122.433806 220 6706ft 274kts
07-Sep-18 12:36 37.616710 -122.454929 188 9866ft 288kts
07-Sep-18 12:37 37.529781 -122.468104 183 12101ft 328kts
07-Sep-18 12:39 37.438681 -122.404645 123 15851ft 355kts
07-Sep-18 12:40 37.378206 -122.303398 131 18656ft 372kts
07-Sep-18 12:40 37.323152 -122.217475 131 20799ft 387kts
07-Sep-18 12:41 37.254046 -122.110412 132 23146ft 404kts
07-Sep-18 12:42 37.181800 -121.999028 132 25289ft 421kts
07-Sep-18 12:43 37.106734 -121.883802 132 27243ft 436kts
07-Sep-18 12:44 37.028748 -121.764534 131 29035ft 450kts
07-Sep-18 12:45 36.948547 -121.642362 130 30789ft 461kts
07-Sep-18 12:46 36.866254 -121.517431 131 32328ft 474kts
07-Sep-18 12:47 36.782063 -121.390126 131 34137ft 477kts
07-Sep-18 12:48 36.698389 -121.264005 131 36065ft 472kts
07-Sep-18 12:49 36.614806 -121.138508 131 37573ft 472kts
07-Sep-18 12:50 36.530647 -121.012691 131 38786ft 475kts
07-Sep-18 12:51 36.446258 -120.886608 130 39065ft 474kts
07-Sep-18 12:52 36.362379 -120.761086 130 39072ft 475kts
07-Sep-18 12:53 36.278008 -120.635320 130 39073ft 475kts
07-Sep-18 12:54 36.193608 -120.509999 130 39073ft 475kts
07-Sep-18 12:55 36.108940 -120.384758 130 39075ft 475kts
07-Sep-18 12:56 36.024952 -120.260880 131 39061ft 474kts
07-Sep-18 12:57 35.940177 -120.136294 131 39067ft 475kts
07-Sep-18 12:58 35.855774 -120.012753 131 39064ft 474kts
07-Sep-18 12:59 35.770064 -119.890704 132 39067ft 474kts
07-Sep-18 13:00 35.682329 -119.769675 132 39058ft 474kts
07-Sep-18 13:01 35.594756 -119.649467 132 39055ft 474kts
07-Sep-18 13:03 35.506945 -119.528788 132 39058ft 474kts
07-Sep-18 13:04 35.419549 -119.408489 132 39064ft 474kts
07-Sep-18 13:05 35.332078 -119.287904 133 39065ft 474kts
07-Sep-18 13:06 35.246019 -119.169099 133 39036ft 469kts
07-Sep-18 13:07 35.159778 -119.049924 133 39037ft 468kts
07-Sep-18 13:08 35.073667 -118.930793 132 39089ft 472kts
07-Sep-18 13:09 34.986792 -118.810446 131 39200ft 473kts
07-Sep-18 13:10 34.900478 -118.690683 130 39224ft 468kts
07-Sep-18 13:11 34.816593 -118.574136 130 39187ft 467kts
07-Sep-18 13:12 34.731036 -118.455123 130 39111ft 467kts
07-Sep-18 13:13 34.646643 -118.337613 130 39094ft 467kts
07-Sep-18 13:14 34.562275 -118.219935 130 39103ft 467kts
07-Sep-18 13:15 34.477474 -118.101573 130 39112ft 467kts
07-Sep-18 13:16 34.408081 -117.970924 106 39109ft 463kts
07-Sep-18 13:17 34.371071 -117.821766 105 39067ft 463kts
07-Sep-18 13:18 34.332117 -117.673750 106 39085ft 463kts
07-Sep-18 13:19 34.292978 -117.525283 105 39075ft 464kts
07-Sep-18 13:20 34.254145 -117.377262 105 39042ft 463kts
07-Sep-18 13:21 34.215545 -117.229398 106 39029ft 463kts
07-Sep-18 13:22 34.177099 -117.081506 105 39028ft 463kts
07-Sep-18 13:23 34.138555 -116.932575 104 39028ft 465kts
07-Sep-18 13:24 34.100181 -116.783546 104 39010ft 466kts
07-Sep-18 13:25 34.062036 -116.634724 104 38962ft 465kts
07-Sep-18 13:26 34.024091 -116.486007 104 38959ft 465kts
07-Sep-18 13:27 33.986301 -116.337230 104 38963ft 465kts
07-Sep-18 13:28 33.948727 -116.188435 104 38945ft 466kts
07-Sep-18 13:29 33.911262 -116.039506 104 38892ft 465kts
07-Sep-18 13:30 33.874239 -115.891634 104 38889ft 465kts
07-Sep-18 13:31 33.837058 -115.742462 103 38887ft 466kts
07-Sep-18 13:32 33.800178 -115.593797 103 38889ft 465kts
07-Sep-18 13:33 33.763379 -115.444768 103 38890ft 465kts
07-Sep-18 13:34 33.726881 -115.296247 104 38917ft 465kts
07-Sep-18 13:35 33.690571 -115.147810 103 38943ft 466kts
07-Sep-18 13:36 33.653976 -114.997647 102 38498ft 470kts
07-Sep-18 13:37 33.617889 -114.848950 101 37491ft 464kts
07-Sep-18 13:38 33.583931 -114.698268 98 35311ft 475kts
07-Sep-18 13:39 33.553997 -114.544644 98 31721ft 476kts
07-Sep-18 13:40 33.524252 -114.393094 99 28593ft 458kts
07-Sep-18 13:41 33.495682 -114.248181 100 25882ft 451kts
07-Sep-18 13:42 33.468257 -114.110322 100 23347ft 402kts
07-Sep-18 13:43 33.443066 -113.984859 100 22930ft 389kts
07-Sep-18 13:44 33.417827 -113.859183 100 22927ft 388kts
07-Sep-18 13:45 33.392543 -113.733704 101 22175ft 384kts
07-Sep-18 13:46 33.367710 -113.611176 101 21182ft 378kts
07-Sep-18 13:47 33.343085 -113.490327 101 20204ft 371kts
07-Sep-18 13:48 33.321156 -113.370985 99 19217ft 366kts
07-Sep-18 13:49 33.301146 -113.254788 100 18268ft 362kts
07-Sep-18 13:50 33.283490 -113.138523 98 17340ft 339kts
07-Sep-18 13:51 33.272369 -113.029140 86 16491ft 337kts
07-Sep-18 13:52 33.276831 -112.918926 86 15531ft 321kts
07-Sep-18 13:53 33.279834 -112.815904 84 14739ft 314kts
07-Sep-18 13:54 33.289737 -112.712300 81 13871ft 310kts
07-Sep-18 13:55 33.299616 -112.610172 81 13044ft 308kts
07-Sep-18 13:56 33.309170 -112.508931 81 12196ft 305kts
07-Sep-18 13:57 33.318499 -112.408462 82 11342ft 301kts
07-Sep-18 13:58 33.327574 -112.309808 82 10381ft 298kts
07-Sep-18 13:59 33.336249 -112.214707 82 9579ft 272kts
07-Sep-18 14:00 33.343968 -112.129446 83 9132ft 244kts
07-Sep-18 14:01 33.347491 -112.047358 89 8530ft 259kts
07-Sep-18 14:02 33.345613 -111.963096 90 7686ft 251kts
07-Sep-18 14:03 33.343649 -111.880892 90 6683ft 243kts
07-Sep-18 14:04 33.341844 -111.800824 90 5585ft 238kts
07-Sep-18 14:05 33.354398 -111.727588 37 4911ft 232kts
07-Sep-18 14:06 33.415088 -111.721455 330 4007ft 225kts
07-Sep-18 14:07 33.439831 -111.788217 271 3703ft 223kts
07-Sep-18 14:08 33.440541 -111.854943 270 3396ft 183kts
07-Sep-18 14:09 33.440648 -111.909437 270 2519ft 154kts
07-Sep-18 14:10 33.440750 -111.960303 270 1695ft 152kts
07-Sep-18 14:11 33.440823 -112.007211 269 1139ft 71kts
07-Sep-18 14:12 33.439797 -112.013328 117 1139ft 4kts
07-Sep-18 14:13 33.438986 -112.010736 90 1139ft 11kts
07-Sep-18 14:14 33.438988 -112.005565 89 1139ft 13kts
07-Sep-18 14:15 33.439000 -112.001332 90 1139ft 9kts
07-Sep-18 14:16 33.437662 -112.000292 161 1139ft 4kts
07-Sep-18 14:17 33.437507 -111.999866 91 1139ft 0kts
07-Sep-18 14:18 33.437507 -111.999866 91 1139ft 0kts

Navigation Log

Ident Type
Flight plan parsing failed, navigation log unavailable